sensor_id;sensor_type;location;lat;lon;timestamp;temperature;humidity
46458;DHT22;32155;54.076;12.092;2023-03-01T02:17:22;0.20;99.90
46458;DHT22;32155;54.076;12.092;2023-03-01T02:22:37;0.30;99.90
46458;DHT22;32155;54.076;12.092;2023-03-01T02:30:45;0.00;99.90
46458;DHT22;32155;54.076;12.092;2023-03-01T02:33:32;0.10;99.90
46458;DHT22;32155;54.076;12.092;2023-03-01T02:36:08;0.00;99.90
46458;DHT22;32155;54.076;12.092;2023-03-01T02:38:35;0.00;99.90
46458;DHT22;32155;54.076;12.092;2023-03-01T02:41:02;-0.10;99.90
46458;DHT22;32155;54.076;12.092;2023-03-01T02:43:31;-0.10;99.90
46458;DHT22;32155;54.076;12.092;2023-03-01T02:46:03;-0.10;99.90
46458;DHT22;32155;54.076;12.092;2023-03-01T02:48:43;-0.10;99.90
46458;DHT22;32155;54.076;12.092;2023-03-01T02:53:59;-0.20;99.90
46458;DHT22;32155;54.076;12.092;2023-03-01T02:56:27;-0.30;99.90
46458;DHT22;32155;54.076;12.092;2023-03-01T02:58:53;-0.40;99.90
46458;DHT22;32155;54.076;12.092;2023-03-01T03:01:20;-0.40;99.90
46458;DHT22;32155;54.076;12.092;2023-03-01T03:03:48;-0.50;99.90
46458;DHT22;32155;54.076;12.092;2023-03-01T03:06:14;-0.30;99.90
46458;DHT22;32155;54.076;12.092;2023-03-01T03:08:39;-0.30;99.90
46458;DHT22;32155;54.076;12.092;2023-03-01T03:11:05;-0.30;99.90
46458;DHT22;32155;54.076;12.092;2023-03-01T03:13:30;-0.20;99.90
46458;DHT22;32155;54.076;12.092;2023-03-01T03:15:57;-0.10;99.90
46458;DHT22;32155;54.076;12.092;2023-03-01T03:18:24;-0.10;99.90
46458;DHT22;32155;54.076;12.092;2023-03-01T03:20:53;-0.30;99.90
46458;DHT22;32155;54.076;12.092;2023-03-01T03:23:20;-0.40;99.90
46458;DHT22;32155;54.076;12.092;2023-03-01T03:25:49;-0.30;99.90
46458;DHT22;32155;54.076;12.092;2023-03-01T03:28:17;-0.30;99.90
46458;DHT22;32155;54.076;12.092;2023-03-01T03:30:44;-0.30;99.90
46458;DHT22;32155;54.076;12.092;2023-03-01T03:33:11;-0.30;99.90
46458;DHT22;32155;54.076;12.092;2023-03-01T03:35:46;-0.30;99.90
46458;DHT22;32155;54.076;12.092;2023-03-01T03:38:14;-0.30;99.90
46458;DHT22;32155;54.076;12.092;2023-03-01T03:40:47;-0.40;99.90
46458;DHT22;32155;54.076;12.092;2023-03-01T03:43:18;-0.50;99.90
46458;DHT22;32155;54.076;12.092;2023-03-01T03:45:47;-0.60;99.90
46458;DHT22;32155;54.076;12.092;2023-03-01T03:48:14;-0.50;99.90
46458;DHT22;32155;54.076;12.092;2023-03-01T03:50:40;-0.50;99.90
46458;DHT22;32155;54.076;12.092;2023-03-01T03:53:10;-0.40;99.90
46458;DHT22;32155;54.076;12.092;2023-03-01T03:55:37;-0.40;99.90
46458;DHT22;32155;54.076;12.092;2023-03-01T03:58:06;-0.40;99.90
46458;DHT22;32155;54.076;12.092;2023-03-01T04:00:36;-0.40;99.90
46458;DHT22;32155;54.076;12.092;2023-03-01T04:03:05;-0.40;99.90
46458;DHT22;32155;54.076;12.092;2023-03-01T04:05:33;-0.60;99.90
46458;DHT22;32155;54.076;12.092;2023-03-01T04:08:02;-0.70;99.90
46458;DHT22;32155;54.076;12.092;2023-03-01T04:10:29;-0.70;99.90
46458;DHT22;32155;54.076;12.092;2023-03-01T04:12:58;-0.70;99.90
46458;DHT22;32155;54.076;12.092;2023-03-01T04:15:25;-0.70;99.90
46458;DHT22;32155;54.076;12.092;2023-03-01T04:17:54;-0.50;99.90
46458;DHT22;32155;54.076;12.092;2023-03-01T04:20:22;-0.50;99.90
46458;DHT22;32155;54.076;12.092;2023-03-01T04:23:05;-0.50;99.90
46458;DHT22;32155;54.076;12.092;2023-03-01T04:25:52;-0.60;99.90
46458;DHT22;32155;54.076;12.092;2023-03-01T04:28:32;-0.60;99.90
46458;DHT22;32155;54.076;12.092;2023-03-01T04:31:09;-0.40;99.90
46458;DHT22;32155;54.076;12.092;2023-03-01T04:33:42;-0.30;99.90
46458;DHT22;32155;54.076;12.092;2023-03-01T04:36:09;-0.40;99.90
46458;DHT22;32155;54.076;12.092;2023-03-01T04:38:36;-0.40;99.90
46458;DHT22;32155;54.076;12.092;2023-03-01T04:41:06;-0.30;99.90
46458;DHT22;32155;54.076;12.092;2023-03-01T04:43:33;-0.20;99.90
46458;DHT22;32155;54.076;12.092;2023-03-01T04:46:07;-0.40;99.90
46458;DHT22;32155;54.076;12.092;2023-03-01T04:48:37;-0.50;99.90
46458;DHT22;32155;54.076;12.092;2023-03-01T04:51:04;-0.60;99.90
46458;DHT22;32155;54.076;12.092;2023-03-01T04:53:31;-0.40;99.90
46458;DHT22;32155;54.076;12.092;2023-03-01T04:55:58;-0.40;99.90
46458;DHT22;32155;54.076;12.092;2023-03-01T04:58:25;-0.30;99.90
46458;DHT22;32155;54.076;12.092;2023-03-01T05:00:51;-0.40;99.90
46458;DHT22;32155;54.076;12.092;2023-03-01T05:03:17;-0.50;99.90
46458;DHT22;32155;54.076;12.092;2023-03-01T05:05:45;-0.50;99.90
46458;DHT22;32155;54.076;12.092;2023-03-01T05:08:14;-0.60;99.90
46458;DHT22;32155;54.076;12.092;2023-03-01T05:10:51;-0.40;99.90
46458;DHT22;32155;54.076;12.092;2023-03-01T05:13:21;-0.40;99.90
46458;DHT22;32155;54.076;12.092;2023-03-01T05:15:48;-0.50;99.90
46458;DHT22;32155;54.076;12.092;2023-03-01T05:18:21;-0.40;99.90
46458;DHT22;32155;54.076;12.092;2023-03-01T05:20:46;-0.40;99.90
46458;DHT22;32155;54.076;12.092;2023-03-01T05:23:13;-0.30;99.90
46458;DHT22;32155;54.076;12.092;2023-03-01T05:25:39;-0.40;99.90
46458;DHT22;32155;54.076;12.092;2023-03-01T05:28:07;-0.50;99.90
46458;DHT22;32155;54.076;12.092;2023-03-01T05:30:35;-0.50;99.90
46458;DHT22;32155;54.076;12.092;2023-03-01T05:33:03;-0.60;99.90
46458;DHT22;32155;54.076;12.092;2023-03-01T05:35:32;-0.60;99.90
46458;DHT22;32155;54.076;12.092;2023-03-01T05:37:58;-0.60;99.90
46458;DHT22;32155;54.076;12.092;2023-03-01T05:40:25;-0.60;99.90
46458;DHT22;32155;54.076;12.092;2023-03-01T05:42:56;-0.60;99.90
46458;DHT22;32155;54.076;12.092;2023-03-01T05:45:23;-0.50;99.90
46458;DHT22;32155;54.076;12.092;2023-03-01T05:47:49;-0.60;99.90
46458;DHT22;32155;54.076;12.092;2023-03-01T05:50:23;-0.60;99.90
46458;DHT22;32155;54.076;12.092;2023-03-01T05:52:59;-0.70;99.90
46458;DHT22;32155;54.076;12.092;2023-03-01T05:55:26;-0.70;99.90
46458;DHT22;32155;54.076;12.092;2023-03-01T05:57:52;-0.60;99.90
46458;DHT22;32155;54.076;12.092;2023-03-01T06:00:19;-0.50;99.90
46458;DHT22;32155;54.076;12.092;2023-03-01T06:02:47;-0.60;99.90
46458;DHT22;32155;54.076;12.092;2023-03-01T06:05:13;-0.60;99.90
46458;DHT22;32155;54.076;12.092;2023-03-01T06:07:39;-0.60;99.90
46458;DHT22;32155;54.076;12.092;2023-03-01T06:10:09;-0.60;99.90
46458;DHT22;32155;54.076;12.092;2023-03-01T06:12:36;-0.60;99.90
46458;DHT22;32155;54.076;12.092;2023-03-01T06:15:06;-0.50;99.90
46458;DHT22;32155;54.076;12.092;2023-03-01T06:17:35;-0.40;99.90
46458;DHT22;32155;54.076;12.092;2023-03-01T06:20:07;-0.40;99.90
46458;DHT22;32155;54.076;12.092;2023-03-01T06:22:34;-0.30;99.90
46458;DHT22;32155;54.076;12.092;2023-03-01T06:24:59;-0.10;99.90
46458;DHT22;32155;54.076;12.092;2023-03-01T06:27:25;-0.10;99.90
46458;DHT22;32155;54.076;12.092;2023-03-01T06:29:51;-0.10;99.90
46458;DHT22;32155;54.076;12.092;2023-03-01T06:32:17;0.10;99.90
46458;DHT22;32155;54.076;12.092;2023-03-01T06:34:44;0.30;99.90
46458;DHT22;32155;54.076;12.092;2023-03-01T06:37:13;0.30;99.90
46458;DHT22;32155;54.076;12.092;2023-03-01T06:39:39;0.60;99.90
46458;DHT22;32155;54.076;12.092;2023-03-01T06:42:05;0.70;99.90
46458;DHT22;32155;54.076;12.092;2023-03-01T06:44:31;0.70;99.90
46458;DHT22;32155;54.076;12.092;2023-03-01T06:46:56;0.80;99.90
46458;DHT22;32155;54.076;12.092;2023-03-01T06:49:22;0.90;99.90
46458;DHT22;32155;54.076;12.092;2023-03-01T06:51:48;1.00;99.90
46458;DHT22;32155;54.076;12.092;2023-03-01T06:54:16;1.10;99.90
46458;DHT22;32155;54.076;12.092;2023-03-01T06:56:46;1.20;99.90
46458;DHT22;32155;54.076;12.092;2023-03-01T06:59:12;1.20;99.90
46458;DHT22;32155;54.076;12.092;2023-03-01T07:01:37;1.40;99.90
46458;DHT22;32155;54.076;12.092;2023-03-01T07:04:06;1.70;99.90
46458;DHT22;32155;54.076;12.092;2023-03-01T07:06:34;1.70;99.90
46458;DHT22;32155;54.076;12.092;2023-03-01T07:09:00;1.70;99.90
46458;DHT22;32155;54.076;12.092;2023-03-01T07:11:28;1.80;99.90
46458;DHT22;32155;54.076;12.092;2023-03-01T07:13:54;1.90;99.90
46458;DHT22;32155;54.076;12.092;2023-03-01T07:16:22;2.00;99.90
46458;DHT22;32155;54.076;12.092;2023-03-01T07:18:48;2.20;99.90
46458;DHT22;32155;54.076;12.092;2023-03-01T07:21:14;2.40;99.90
46458;DHT22;32155;54.076;12.092;2023-03-01T07:23:42;2.40;99.90
46458;DHT22;32155;54.076;12.092;2023-03-01T07:26:07;2.50;99.90
46458;DHT22;32155;54.076;12.092;2023-03-01T07:28:33;2.60;99.90
46458;DHT22;32155;54.076;12.092;2023-03-01T07:31:07;2.50;99.90
46458;DHT22;32155;54.076;12.092;2023-03-01T07:33:33;2.50;99.90
46458;DHT22;32155;54.076;12.092;2023-03-01T07:36:00;2.60;99.90
46458;DHT22;32155;54.076;12.092;2023-03-01T07:38:26;2.60;99.90
46458;DHT22;32155;54.076;12.092;2023-03-01T07:40:58;2.80;99.90
46458;DHT22;32155;54.076;12.092;2023-03-01T07:43:38;2.80;99.90
46458;DHT22;32155;54.076;12.092;2023-03-01T07:46:04;2.90;99.90
46458;DHT22;32155;54.076;12.092;2023-03-01T07:48:31;3.10;99.90
46458;DHT22;32155;54.076;12.092;2023-03-01T07:51:00;3.20;99.90
46458;DHT22;32155;54.076;12.092;2023-03-01T07:53:27;3.30;99.90
46458;DHT22;32155;54.076;12.092;2023-03-01T07:56:07;3.30;99.90
46458;DHT22;32155;54.076;12.092;2023-03-01T07:58:41;3.40;99.90
46458;DHT22;32155;54.076;12.092;2023-03-01T08:01:10;3.50;99.90
46458;DHT22;32155;54.076;12.092;2023-03-01T08:03:38;3.50;99.90
46458;DHT22;32155;54.076;12.092;2023-03-01T08:06:06;3.60;99.90
46458;DHT22;32155;54.076;12.092;2023-03-01T08:08:32;3.50;99.90
46458;DHT22;32155;54.076;12.092;2023-03-01T08:11:00;3.40;99.90
46458;DHT22;32155;54.076;12.092;2023-03-01T08:13:28;3.60;99.90
46458;DHT22;32155;54.076;12.092;2023-03-01T08:16:08;3.80;99.90
46458;DHT22;32155;54.076;12.092;2023-03-01T08:18:35;3.80;99.90
46458;DHT22;32155;54.076;12.092;2023-03-01T08:21:05;3.70;99.90
46458;DHT22;32155;54.076;12.092;2023-03-01T08:23:34;3.80;99.90
46458;DHT22;32155;54.076;12.092;2023-03-01T08:26:08;3.90;99.90
46458;DHT22;32155;54.076;12.092;2023-03-01T08:28:34;4.00;99.90
46458;DHT22;32155;54.076;12.092;2023-03-01T08:31:12;3.90;99.90
46458;DHT22;32155;54.076;12.092;2023-03-01T08:33:38;4.20;99.90
46458;DHT22;32155;54.076;12.092;2023-03-01T08:36:06;4.20;99.90
46458;DHT22;32155;54.076;12.092;2023-03-01T08:38:33;4.40;99.90
46458;DHT22;32155;54.076;12.092;2023-03-01T08:41:03;4.40;99.90
46458;DHT22;32155;54.076;12.092;2023-03-01T08:43:29;4.50;99.90
46458;DHT22;32155;54.076;12.092;2023-03-01T08:45:55;4.70;99.90
46458;DHT22;32155;54.076;12.092;2023-03-01T08:48:20;4.80;99.90
46458;DHT22;32155;54.076;12.092;2023-03-01T08:50:48;5.00;99.90
46458;DHT22;32155;54.076;12.092;2023-03-01T08:53:28;5.00;99.90
46458;DHT22;32155;54.076;12.092;2023-03-01T08:55:59;5.00;99.90
46458;DHT22;32155;54.076;12.092;2023-03-01T08:58:27;5.40;99.90
46458;DHT22;32155;54.076;12.092;2023-03-01T09:00:53;5.90;99.90
46458;DHT22;32155;54.076;12.092;2023-03-01T09:03:22;5.80;99.90
46458;DHT22;32155;54.076;12.092;2023-03-01T09:05:51;5.70;99.90
46458;DHT22;32155;54.076;12.092;2023-03-01T09:08:18;5.50;99.90
46458;DHT22;32155;54.076;12.092;2023-03-01T09:10:44;5.60;99.90
46458;DHT22;32155;54.076;12.092;2023-03-01T09:13:10;5.70;99.90
46458;DHT22;32155;54.076;12.092;2023-03-01T09:15:39;5.90;99.90
46458;DHT22;32155;54.076;12.092;2023-03-01T09:18:07;5.90;99.90
46458;DHT22;32155;54.076;12.092;2023-03-01T09:20:33;5.80;99.90
46458;DHT22;32155;54.076;12.092;2023-03-01T09:22:58;5.90;99.90
46458;DHT22;32155;54.076;12.092;2023-03-01T09:25:24;5.90;99.90
46458;DHT22;32155;54.076;12.092;2023-03-01T09:27:54;5.90;99.90
46458;DHT22;32155;54.076;12.092;2023-03-01T09:30:20;6.00;99.90
46458;DHT22;32155;54.076;12.092;2023-03-01T09:32:46;6.00;99.90
46458;DHT22;32155;54.076;12.092;2023-03-01T09:35:12;5.90;99.90
46458;DHT22;32155;54.076;12.092;2023-03-01T09:37:40;5.70;99.90
46458;DHT22;32155;54.076;12.092;2023-03-01T09:40:16;5.60;99.90
46458;DHT22;32155;54.076;12.092;2023-03-01T09:43:07;5.70;99.90
46458;DHT22;32155;54.076;12.092;2023-03-01T09:45:41;5.80;99.90
46458;DHT22;32155;54.076;12.092;2023-03-01T09:48:14;5.80;99.90
46458;DHT22;32155;54.076;12.092;2023-03-01T09:50:43;5.90;99.90
46458;DHT22;32155;54.076;12.092;2023-03-01T09:53:17;5.80;99.90
46458;DHT22;32155;54.076;12.092;2023-03-01T10:01:41;5.70;99.90
46458;DHT22;32155;54.076;12.092;2023-03-01T10:15:55;6.30;99.90
46458;DHT22;32155;54.076;12.092;2023-03-01T10:18:30;6.30;99.90
46458;DHT22;32155;54.076;12.092;2023-03-01T10:21:22;6.40;99.90
46458;DHT22;32155;54.076;12.092;2023-03-01T10:23:50;6.20;99.90
46458;DHT22;32155;54.076;12.092;2023-03-01T10:29:05;6.30;99.90
46458;DHT22;32155;54.076;12.092;2023-03-01T10:31:46;6.30;99.90
46458;DHT22;32155;54.076;12.092;2023-03-01T10:34:46;6.20;99.90
46458;DHT22;32155;54.076;12.092;2023-03-01T10:39:36;6.30;99.90
46458;DHT22;32155;54.076;12.092;2023-03-01T10:42:05;6.30;99.90
46458;DHT22;32155;54.076;12.092;2023-03-01T10:44:47;6.20;99.90
46458;DHT22;32155;54.076;12.092;2023-03-01T10:47:24;6.30;99.90
46458;DHT22;32155;54.076;12.092;2023-03-01T10:49:59;6.50;99.90
46458;DHT22;32155;54.076;12.092;2023-03-01T10:52:35;6.60;99.90
46458;DHT22;32155;54.076;12.092;2023-03-01T10:55:33;6.60;99.90
46458;DHT22;32155;54.076;12.092;2023-03-01T10:58:24;6.80;99.90
46458;DHT22;32155;54.076;12.092;2023-03-01T11:00:55;6.80;99.90
46458;DHT22;32155;54.076;12.092;2023-03-01T11:03:30;6.80;99.90
46458;DHT22;32155;54.076;12.092;2023-03-01T11:08:44;7.00;99.90
46458;DHT22;32155;54.076;12.092;2023-03-01T11:11:46;7.00;99.90
46458;DHT22;32155;54.076;12.092;2023-03-01T11:17:46;7.40;99.90
46458;DHT22;32155;54.076;12.092;2023-03-01T11:22:54;7.80;99.90
46458;DHT22;32155;54.076;12.092;2023-03-01T11:25:24;8.10;99.90
46458;DHT22;32155;54.076;12.092;2023-03-01T11:27:52;8.00;99.90
46458;DHT22;32155;54.076;12.092;2023-03-01T11:30:43;8.10;99.90
46458;DHT22;32155;54.076;12.092;2023-03-01T11:36:54;8.00;99.90
46458;DHT22;32155;54.076;12.092;2023-03-01T11:46:35;7.60;99.90
46458;DHT22;32155;54.076;12.092;2023-03-01T12:01:12;8.00;99.90
46458;DHT22;32155;54.076;12.092;2023-03-01T12:17:32;7.50;99.90
46458;DHT22;32155;54.076;12.092;2023-03-01T12:26:10;7.40;99.90
46458;DHT22;32155;54.076;12.092;2023-03-01T13:15:50;7.20;99.90
46458;DHT22;32155;54.076;12.092;2023-03-01T13:22:32;7.20;99.90
46458;DHT22;32155;54.076;12.092;2023-03-01T13:25:13;7.10;99.90
46458;DHT22;32155;54.076;12.092;2023-03-01T13:27:44;7.10;99.90
46458;DHT22;32155;54.076;12.092;2023-03-01T13:30:39;7.00;99.90
46458;DHT22;32155;54.076;12.092;2023-03-01T13:39:03;7.00;99.90
46458;DHT22;32155;54.076;12.092;2023-03-01T13:41:57;7.00;99.90
46458;DHT22;32155;54.076;12.092;2023-03-01T13:44:36;6.80;99.90
46458;DHT22;32155;54.076;12.092;2023-03-01T13:50:03;6.70;99.90
46458;DHT22;32155;54.076;12.092;2023-03-01T13:55:38;6.60;99.90
46458;DHT22;32155;54.076;12.092;2023-03-01T13:58:26;6.50;99.90
46458;DHT22;32155;54.076;12.092;2023-03-01T14:03:43;6.40;99.90
46458;DHT22;32155;54.076;12.092;2023-03-01T14:06:16;6.30;99.90
46458;DHT22;32155;54.076;12.092;2023-03-01T14:08:47;6.30;99.90
